Time;durP1;ratioP1;P1;durP2;ratioP2;P2;SDS_P1;SDS_P2;PMS_P1;PMS_P2;Temp;Humidity;BMP_temperature;BMP_pressure;BME280_temperature;BME280_humidity;BME280_pressure;Samples;Min_cycle;Max_cycle;Signal;HPM_P1;HPM_P2
2022/08/22 00:02:25;;;;;;;;;5.00;4.25;;;;;25.03;42.37;100981.88;5031362;28;45241;-54
2022/08/22 00:05:09;;;;;;;;;5.00;4.75;;;;;25.04;42.54;100994.19;5052064;28;45401;-56
2022/08/22 00:07:52;;;;;;;;;5.00;3.75;;;;;25.03;42.35;100993.34;5038615;28;45815;-56
2022/08/22 00:10:30;;;;;;;;;5.50;4.25;;;;;25.03;42.18;100995.16;5057795;28;45618;-54
2022/08/22 00:13:15;;;;;;;;;5.25;4.25;;;;;25.01;42.67;100985.50;5048823;28;45721;-56
2022/08/22 00:15:47;;;;;;;;;5.00;4.25;;;;;25.01;42.84;100990.81;5038456;28;46641;-56
2022/08/22 00:18:27;;;;;;;;;4.00;4.00;;;;;25.01;42.26;100982.00;5036270;28;45734;-56
2022/08/22 00:21:14;;;;;;;;;4.00;4.00;;;;;25.00;42.18;100978.50;5036166;28;45411;-56
2022/08/22 00:23:51;;;;;;;;;5.75;4.25;;;;;25.00;42.18;100972.38;5035368;28;45515;-55
2022/08/22 00:26:53;;;;;;;;;6.50;6.00;;;;;25.00;42.82;100959.09;5035823;28;47129;-56
2022/08/22 00:29:33;;;;;;;;;6.50;3.00;;;;;24.99;42.78;100960.88;5035909;28;45259;-55
2022/08/22 00:32:11;;;;;;;;;4.75;4.75;;;;;25.01;42.23;100958.16;5036890;28;45470;-54
2022/08/22 00:34:49;;;;;;;;;7.25;4.25;;;;;24.99;42.81;100955.59;5036712;28;45406;-56
2022/08/22 00:37:28;;;;;;;;;4.00;4.00;;;;;24.98;42.13;100956.53;5035963;28;46940;-54
2022/08/22 00:40:01;;;;;;;;;4.00;4.00;;;;;24.98;42.60;100961.84;5035597;28;45318;-56
2022/08/22 00:42:43;;;;;;;;;6.75;3.50;;;;;24.98;42.20;100953.06;5036362;28;45241;-56
2022/08/22 00:45:36;;;;;;;;;4.00;4.00;;;;;24.99;42.11;100960.88;5036458;28;45397;-57
2022/08/22 00:48:11;;;;;;;;;5.25;5.25;;;;;24.98;42.71;100968.97;5036629;28;46048;-56
2022/08/22 00:51:01;;;;;;;;;4.00;4.00;;;;;24.97;42.32;100973.41;5036284;28;45844;-55
2022/08/22 00:53:49;;;;;;;;;5.00;4.75;;;;;24.95;42.72;100964.75;5036256;28;45308;-56
2022/08/22 00:56:40;;;;;;;;;3.50;3.50;;;;;24.96;42.67;100968.22;5036256;28;45343;-54
2022/08/22 00:59:24;;;;;;;;;4.75;4.00;;;;;24.95;42.57;100970.03;5035918;28;46260;-54
2022/08/22 01:02:09;;;;;;;;;5.50;3.00;;;;;24.96;41.98;100965.56;5035893;28;45391;-54
2022/08/22 01:04:38;;;;;;;;;5.75;4.75;;;;;24.95;42.53;100970.03;5036201;28;45225;-55
2022/08/22 01:07:29;;;;;;;;;7.00;5.25;;;;;24.95;42.32;100972.69;5036461;28;45394;-55
2022/08/22 01:10:13;;;;;;;;;5.00;3.25;;;;;24.95;42.15;100971.84;5025380;28;46566;-55
2022/08/22 01:12:54;;;;;;;;;4.25;4.00;;;;;24.94;41.84;100978.97;5035683;28;45836;-54
2022/08/22 01:15:25;;;;;;;;;6.00;3.75;;;;;24.92;42.02;100980.00;5035408;28;45356;-54
2022/08/22 01:18:09;;;;;;;;;6.75;3.00;;;;;24.93;42.47;100982.56;5035750;28;45441;-54
2022/08/22 01:20:56;;;;;;;;;3.50;3.00;;;;;24.92;41.73;100974.69;5035777;28;45281;-55
2022/08/22 01:23:21;;;;;;;;;5.75;3.00;;;;;24.89;42.38;100967.81;5035464;28;45847;-53
2022/08/22 01:26:19;;;;;;;;;4.00;3.00;;;;;24.88;41.67;100967.94;5036248;28;45550;-54
2022/08/22 01:29:06;;;;;;;;;4.75;3.00;;;;;24.88;41.76;100963.47;5036123;28;45314;-56
2022/08/22 01:32:02;;;;;;;;;4.00;3.00;;;;;24.87;42.31;100969.72;5036055;28;45492;-56
2022/08/22 01:35:04;;;;;;;;;3.00;3.00;;;;;24.84;42.02;100954.06;5035577;28;45826;-55
2022/08/22 01:37:50;;;;;;;;;6.50;4.00;;;;;24.85;41.95;100953.13;5036230;28;45522;-53
2022/08/22 01:40:28;;;;;;;;;4.00;4.00;;;;;24.85;41.94;100955.75;5035975;28;45311;-52
2022/08/22 01:43:13;;;;;;;;;3.25;3.25;;;;;24.85;42.02;100953.94;5035537;28;46942;-54
2022/08/22 01:45:57;;;;;;;;;4.00;4.00;;;;;24.85;41.95;100953.13;5035830;28;45826;-53
2022/08/22 01:48:44;;;;;;;;;3.25;3.25;;;;;24.84;41.42;100944.28;5035613;28;45596;-54
2022/08/22 01:51:48;;;;;;;;;5.00;5.00;;;;;24.83;41.75;100939.94;5035783;28;45312;-55
2022/08/22 01:54:29;;;;;;;;;4.25;3.00;;;;;24.83;41.82;100941.75;5013349;28;47114;-52
2022/08/22 01:57:01;;;;;;;;;5.00;4.25;;;;;24.83;41.27;100944.41;5029421;28;45847;-53
2022/08/22 01:59:48;;;;;;;;;3.00;3.00;;;;;24.83;41.31;100950.56;5052827;28;44679;-52
2022/08/22 02:02:42;;;;;;;;;4.00;3.00;;;;;24.84;41.21;100954.06;5044163;28;45333;-54
2022/08/22 02:05:12;;;;;;;;;4.75;3.00;;;;;24.82;41.31;100948.84;5036002;28;45866;-54
2022/08/22 02:08:07;;;;;;;;;8.00;4.00;;;;;24.82;41.64;100953.31;5034172;28;46237;-50
2022/08/22 02:11:01;;;;;;;;;3.75;3.25;;;;;24.82;41.73;100953.31;5033322;28;45552;-55
2022/08/22 02:13:42;;;;;;;;;4.25;2.00;;;;;24.81;41.53;100956.94;5038009;28;45361;-53
2022/08/22 02:16:16;;;;;;;;;5.25;3.25;;;;;24.81;41.39;100964.88;5054503;28;45100;-53
2022/08/22 02:19:08;;;;;;;;;3.00;1.75;;;;;24.79;40.97;100953.53;5056188;28;45645;-55
2022/08/22 02:21:39;;;;;;;;;3.25;3.25;;;;;24.78;41.37;100952.69;5044998;28;45310;-57
2022/08/22 02:24:20;;;;;;;;;7.00;4.00;;;;;24.76;41.49;100954.63;5048749;28;44800;-52
2022/08/22 02:27:03;;;;;;;;;3.25;3.25;;;;;24.76;41.63;100956.41;5051610;28;47071;-57
2022/08/22 02:29:52;;;;;;;;;4.00;3.00;;;;;24.74;41.20;100955.69;5043177;28;45500;-57
2022/08/22 02:32:34;;;;;;;;;3.25;3.25;;;;;24.74;41.26;100947.75;5035192;28;45435;-58
2022/08/22 02:35:09;;;;;;;;;4.00;3.00;;;;;24.72;40.83;100947.81;5039295;28;45467;-57
2022/08/22 02:37:37;;;;;;;;;4.00;3.00;;;;;24.73;40.86;100948.69;5038858;28;46150;-57
2022/08/22 02:40:20;;;;;;;;;3.50;3.00;;;;;24.72;40.82;100953.13;5038377;28;45188;-57
2022/08/22 02:42:59;;;;;;;;;3.25;3.00;;;;;24.72;40.72;100960.25;5045636;28;45245;-55
2022/08/22 02:45:43;;;;;;;;;2.00;2.00;;;;;24.72;40.82;100963.72;5063427;28;44683;-54
2022/08/22 02:48:18;;;;;;;;;3.75;3.00;;;;;24.70;41.05;100955.91;5062528;28;45206;-58
2022/08/22 02:50:55;;;;;;;;;4.75;3.75;;;;;24.68;40.91;100955.16;5050205;28;46241;-57
2022/08/22 02:53:55;;;;;;;;;3.00;3.00;;;;;24.68;41.06;100956.94;5039261;28;45472;-57
2022/08/22 02:56:32;;;;;;;;;4.00;2.25;;;;;24.66;40.94;100949.06;5038573;28;45712;-57
2022/08/22 02:59:28;;;;;;;;;3.25;2.25;;;;;24.66;40.71;100945.59;5037758;28;47145;-57
2022/08/22 03:01:55;;;;;;;;;3.50;3.00;;;;;24.65;40.51;100957.16;5037805;28;45669;-57
2022/08/22 03:04:46;;;;;;;;;4.00;2.00;;;;;24.65;40.57;100955.34;5038036;28;45947;-58
2022/08/22 03:07:20;;;;;;;;;4.25;2.75;;;;;24.66;40.47;100950.91;5038069;28;45474;-57
2022/08/22 03:09:56;;;;;;;;;4.75;3.00;;;;;24.65;40.55;100946.56;5037968;28;46235;-55
2022/08/22 03:12:31;;;;;;;;;2.25;2.25;;;;;24.65;40.80;100954.50;5037873;28;45336;-55
2022/08/22 03:15:06;;;;;;;;;3.00;3.00;;;;;24.65;40.96;100951.84;5037924;28;45345;-55
2022/08/22 03:17:51;;;;;;;;;2.50;2.50;;;;;24.63;40.54;100946.66;5038548;28;45535;-54
2022/08/22 03:20:35;;;;;;;;;2.75;2.75;;;;;24.63;40.68;100946.66;5037294;28;45279;-53
2022/08/22 03:23:27;;;;;;;;;2.00;2.00;;;;;24.62;41.06;100947.63;5038197;28;45293;-54
2022/08/22 03:26:14;;;;;;;;;3.00;3.00;;;;;24.61;40.75;100959.19;5038061;28;45366;-54
2022/08/22 03:29:21;;;;;;;;;3.00;2.75;;;;;24.61;40.97;100953.88;5038181;28;45359;-54
2022/08/22 03:32:10;;;;;;;;;4.00;2.75;;;;;24.61;40.54;100945.06;5033748;28;45329;-54
2022/08/22 03:34:37;;;;;;;;;8.00;4.00;;;;;24.59;40.64;100939.03;5063474;28;45564;-56
2022/08/22 03:37:16;;;;;;;;;4.00;3.00;;;;;24.60;40.55;100940.72;5050662;28;45763;-56
2022/08/22 03:40:06;;;;;;;;;7.25;3.50;;;;;24.58;41.02;100942.66;5038308;28;45244;-56
2022/08/22 03:43:02;;;;;;;;;4.75;3.50;;;;;24.58;41.19;100942.66;5037951;28;45393;-57
2022/08/22 03:45:51;;;;;;;;;3.00;3.00;;;;;24.59;40.80;100941.66;5036664;28;45350;-57
2022/08/22 03:48:55;;;;;;;;;3.25;3.00;;;;;24.58;41.18;100940.84;5037318;28;45228;-56
2022/08/22 03:51:23;;;;;;;;;4.50;4.00;;;;;24.59;41.21;100941.66;5035884;28;45244;-56
2022/08/22 03:53:57;;;;;;;;;5.00;2.25;;;;;24.58;40.91;100935.53;5037728;28;46314;-57
2022/08/22 03:57:01;;;;;;;;;5.75;4.00;;;;;24.57;41.44;100933.84;5037094;28;45670;-56
2022/08/22 03:59:35;;;;;;;;;6.00;3.25;;;;;24.55;41.42;100931.31;5037179;28;45396;-56
2022/08/22 04:02:37;;;;;;;;;3.25;3.25;;;;;24.55;41.39;100935.75;5038230;28;45506;-53
2022/08/22 04:05:22;;;;;;;;;3.00;3.00;;;;;24.55;41.07;100927.78;5037497;28;46387;-56
2022/08/22 04:08:15;;;;;;;;;2.75;2.75;;;;;24.53;41.56;100919.09;5037171;28;45377;-54
2022/08/22 04:11:15;;;;;;;;;3.75;3.00;;;;;24.52;41.08;100920.09;5037139;28;45482;-54
2022/08/22 04:14:02;;;;;;;;;4.00;4.00;;;;;24.50;41.72;100912.22;5037468;28;45236;-54
2022/08/22 04:16:58;;;;;;;;;5.75;3.25;;;;;24.51;41.72;100910.44;5040865;28;45355;-56
2022/08/22 04:19:32;;;;;;;;;4.00;3.25;;;;;24.49;41.19;100915.00;5049506;28;45693;-55
2022/08/22 04:22:23;;;;;;;;;5.00;4.00;;;;;24.48;41.37;100918.59;5040124;28;45210;-56
2022/08/22 04:24:55;;;;;;;;;3.00;3.00;;;;;24.49;41.44;100925.59;5038444;28;45288;-54
2022/08/22 04:27:29;;;;;;;;;5.50;4.75;;;;;24.48;41.83;100932.69;5036436;28;46646;-54
2022/08/22 04:30:24;;;;;;;;;3.50;2.75;;;;;24.48;41.89;100923.91;5037482;28;45800;-57
2022/08/22 04:33:03;;;;;;;;;5.75;3.00;;;;;24.47;41.92;100919.56;5038429;28;45342;-54
2022/08/22 04:35:34;;;;;;;;;3.50;3.50;;;;;24.46;41.82;100917.84;5037343;28;45430;-53
2022/08/22 04:38:06;;;;;;;;;3.25;3.25;;;;;24.45;41.56;100922.31;5038018;28;48100;-52
2022/08/22 04:40:44;;;;;;;;;4.00;3.00;;;;;24.45;41.81;100924.97;5047758;28;45221;-52
2022/08/22 04:43:41;;;;;;;;;2.50;2.50;;;;;24.46;42.02;100923.16;5052034;28;45283;-52
2022/08/22 04:46:31;;;;;;;;;5.75;4.50;;;;;24.46;41.90;100915.22;5041683;28;45407;-54
2022/08/22 04:49:04;;;;;;;;;5.50;5.00;;;;;24.46;41.70;100920.50;5062563;28;46159;-55
2022/08/22 04:51:40;;;;;;;;;4.75;4.00;;;;;24.45;41.91;100926.75;5055458;28;45241;-56
2022/08/22 04:54:15;;;;;;;;;5.50;2.50;;;;;24.43;41.70;100928.66;5037086;28;45352;-55
2022/08/22 04:56:59;;;;;;;;;5.00;3.50;;;;;24.40;41.96;100940.34;5036868;28;45360;-56
2022/08/22 04:59:27;;;;;;;;;2.75;2.75;;;;;24.37;42.13;100943.19;5035973;28;46237;-56
2022/08/22 05:01:57;;;;;;;;;4.50;4.00;;;;;24.36;41.86;100952.94;5036220;28;45292;-56
2022/08/22 05:04:30;;;;;;;;;6.00;3.00;;;;;24.33;42.06;100947.03;5035775;28;45310;-55
2022/08/22 05:07:12;;;;;;;;;4.00;4.00;;;;;24.31;41.77;100928.56;5036345;28;45289;-56
2022/08/22 05:09:43;;;;;;;;;3.00;3.00;;;;;24.30;41.82;100940.16;5036133;28;45217;-56
2022/08/22 05:12:13;;;;;;;;;4.00;4.00;;;;;24.29;41.92;100962.28;5035811;28;45273;-52
2022/08/22 05:14:43;;;;;;;;;3.25;3.25;;;;;24.28;41.91;100971.19;5035902;28;45336;-56
2022/08/22 05:17:14;;;;;;;;;1.50;1.25;;;;;24.27;41.91;100974.78;5035694;28;45488;-56
2022/08/22 05:19:45;;;;;;;;;7.00;5.00;;;;;24.26;42.39;100961.63;5036030;28;46818;-56
2022/08/22 05:22:18;;;;;;;;;3.00;2.25;;;;;24.26;42.25;100957.19;5035854;28;45370;-55
2022/08/22 05:24:48;;;;;;;;;4.00;3.00;;;;;24.26;41.80;100951.03;5035800;28;45401;-56
2022/08/22 05:27:24;;;;;;;;;7.00;3.50;;;;;24.25;42.37;100955.50;5034794;28;45586;-55
2022/08/22 05:29:58;;;;;;;;;4.00;3.50;;;;;24.24;42.21;100953.81;5035854;28;46399;-56
2022/08/22 05:32:28;;;;;;;;;4.75;4.00;;;;;24.22;42.18;100955.72;5036436;28;45383;-55
2022/08/22 05:34:58;;;;;;;;;7.75;3.75;;;;;24.20;42.64;100965.56;5037433;28;45390;-57
2022/08/22 05:37:43;;;;;;;;;5.00;3.50;;;;;24.17;42.50;100971.91;5036534;28;45724;-55
2022/08/22 05:40:21;;;;;;;;;4.75;4.00;;;;;24.14;41.93;100973.94;5035763;28;46689;-56
2022/08/22 05:42:47;;;;;;;;;3.00;3.00;;;;;24.07;42.54;100979.66;5035794;28;45866;-56
2022/08/22 05:45:13;;;;;;;;;4.75;4.25;;;;;24.05;42.55;100980.69;5035723;28;45494;-56
2022/08/22 05:47:44;;;;;;;;;3.50;3.00;;;;;24.00;42.45;100983.66;5036006;28;45455;-52
2022/08/22 05:50:38;;;;;;;;;6.00;5.50;;;;;23.97;42.29;100991.84;5035418;28;47203;-56
2022/08/22 05:53:25;;;;;;;;;6.00;5.00;;;;;23.94;42.78;100989.34;5032067;28;45739;-56
2022/08/22 05:55:59;;;;;;;;;6.50;4.00;;;;;23.91;42.43;100984.25;5037432;28;45452;-55
2022/08/22 05:58:37;;;;;;;;;3.50;3.50;;;;;23.89;42.52;100980.84;5045447;28;45465;-53
2022/08/22 06:01:25;;;;;;;;;5.75;3.00;;;;;23.86;42.78;100981.94;5053249;28;47119;-53
2022/08/22 06:03:55;;;;;;;;;3.75;3.75;;;;;23.85;42.93;100989.97;5061521;28;45150;-55
2022/08/22 06:06:23;;;;;;;;;8.75;4.00;;;;;23.83;42.46;100998.00;5055849;28;45388;-55
2022/08/22 06:09:01;;;;;;;;;4.00;4.00;;;;;23.82;42.65;100984.88;5067322;28;44844;-55
2022/08/22 06:11:41;;;;;;;;;6.25;3.75;;;;;23.83;42.75;100997.16;5057478;28;46101;-53
2022/08/22 06:14:22;;;;;;;;;3.00;3.00;;;;;23.81;42.97;100997.28;5061173;28;45109;-55
2022/08/22 06:17:09;;;;;;;;;5.75;4.00;;;;;23.81;42.66;100999.06;5054355;28;45212;-59
2022/08/22 06:19:39;;;;;;;;;4.75;4.00;;;;;23.78;43.20;101000.97;5061462;28;45318;-56
2022/08/22 06:22:05;;;;;;;;;5.25;5.00;;;;;23.79;42.77;100985.94;5066022;28;46588;-54
2022/08/22 06:24:35;;;;;;;;;2.75;2.75;;;;;23.82;42.58;100979.59;5062370;28;44768;-55
2022/08/22 06:27:09;;;;;;;;;4.75;3.50;;;;;23.80;42.92;100986.78;5056048;28;45423;-54
2022/08/22 06:29:39;;;;;;;;;4.50;4.50;;;;;23.82;42.73;100995.47;5050335;28;45288;-55
2022/08/22 06:32:33;;;;;;;;;6.00;4.25;;;;;23.81;43.08;100993.78;5046664;28;47348;-55
2022/08/22 06:35:09;;;;;;;;;4.00;4.00;;;;;23.80;42.75;100994.72;5048104;28;45386;-55
2022/08/22 06:37:39;;;;;;;;;3.50;3.50;;;;;23.81;43.40;100999.06;5047972;28;45391;-55
2022/08/22 06:40:07;;;;;;;;;5.25;5.25;;;;;23.81;43.43;100993.78;5043733;28;45358;-54
2022/08/22 06:42:39;;;;;;;;;5.25;5.25;;;;;23.82;43.25;100998.13;5043051;28;46881;-54
2022/08/22 06:45:10;;;;;;;;;6.00;6.00;;;;;23.84;43.05;100990.94;5041815;28;45741;-53
2022/08/22 06:47:40;;;;;;;;;4.75;4.00;;;;;23.86;43.18;100989.03;5041789;28;45232;-53
2022/08/22 06:50:13;;;;;;;;;7.00;5.25;;;;;23.89;43.81;100992.31;5041846;28;45336;-56
2022/08/22 06:52:50;;;;;;;;;5.50;4.25;;;;;23.92;42.89;100996.53;5041607;28;46216;-52
2022/08/22 06:55:16;;;;;;;;;5.00;4.00;;;;;23.95;42.91;100991.09;5042709;28;45940;-53
2022/08/22 06:57:50;;;;;;;;;4.50;4.50;;;;;23.96;42.79;100979.53;5058106;28;45320;-53
2022/08/22 07:00:16;;;;;;;;;5.75;4.75;;;;;24.00;43.15;100986.31;5062148;28;44780;-55
2022/08/22 07:02:47;;;;;;;;;6.00;4.00;;;;;24.02;43.06;100986.22;5044747;28;47221;-54
2022/08/22 07:05:16;;;;;;;;;5.25;4.50;;;;;24.03;43.42;100987.91;5041513;28;45629;-54
2022/08/22 07:07:42;;;;;;;;;4.75;4.00;;;;;24.03;43.06;100988.75;5041306;28;45341;-54
2022/08/22 07:10:12;;;;;;;;;6.75;4.75;;;;;24.06;42.77;101004.44;5037459;28;45467;-54
2022/08/22 07:12:42;;;;;;;;;4.00;4.00;;;;;24.07;43.28;101006.13;5038524;28;47041;-54
2022/08/22 07:15:17;;;;;;;;;5.25;5.00;;;;;24.09;42.91;101017.44;5038467;28;45819;-56
2022/08/22 07:17:53;;;;;;;;;5.00;4.50;;;;;24.11;42.85;101011.22;5038443;28;45440;-54
2022/08/22 07:20:43;;;;;;;;;8.00;5.00;;;;;24.07;43.36;101016.72;5039341;28;45340;-54
2022/08/22 07:23:13;;;;;;;;;5.00;4.50;;;;;24.06;43.55;101022.97;5048037;28;47023;-55
2022/08/22 07:26:21;;;;;;;;;10.75;5.25;;;;;24.04;42.94;101022.22;5054885;28;45482;-55
2022/08/22 07:28:56;;;;;;;;;4.75;4.00;;;;;24.07;43.52;101021.16;5038710;28;45277;-55
2022/08/22 07:31:41;;;;;;;;;6.25;5.00;;;;;24.08;43.42;101029.03;5038653;28;45289;-54
2022/08/22 07:34:12;;;;;;;;;5.00;5.00;;;;;24.11;43.43;101029.75;5038249;28;47091;-54
2022/08/22 07:36:48;;;;;;;;;6.25;4.25;;;;;24.14;43.19;101029.53;5038022;28;45440;-56
2022/08/22 07:39:26;;;;;;;;;10.75;6.00;;;;;24.16;42.82;101022.34;5040668;28;45386;-55
2022/08/22 07:42:15;;;;;;;;;6.00;5.00;;;;;24.17;43.39;101024.88;5046713;28;45344;-56
2022/08/22 07:44:48;;;;;;;;;8.00;5.00;;;;;24.19;42.82;101019.50;5037819;28;46805;-55
2022/08/22 07:47:18;;;;;;;;;9.00;5.25;;;;;24.21;42.85;101020.22;5038968;28;45735;-55
2022/08/22 07:49:51;;;;;;;;;4.75;4.75;;;;;24.23;43.09;101026.25;5041549;28;45520;-54
2022/08/22 07:52:19;;;;;;;;;7.00;5.00;;;;;24.23;43.18;101031.56;5040012;28;45505;-54
2022/08/22 07:54:56;;;;;;;;;4.25;3.25;;;;;24.25;42.81;101027.00;5051278;28;45463;-56
2022/08/22 07:57:40;;;;;;;;;4.00;4.00;;;;;24.28;43.33;101028.59;5059509;28;45082;-56
2022/08/22 08:00:12;;;;;;;;;6.25;4.75;;;;;24.28;43.18;101031.25;5060184;28;44747;-55
2022/08/22 08:02:51;;;;;;;;;6.25;5.00;;;;;24.30;42.89;101030.22;5061080;28;44819;-54
2022/08/22 08:05:20;;;;;;;;;4.00;3.75;;;;;24.30;43.27;101019.63;5055901;28;46086;-54
2022/08/22 08:07:47;;;;;;;;;3.00;2.00;;;;;24.31;42.97;101017.78;5060034;28;45072;-55
2022/08/22 08:10:18;;;;;;;;;6.00;5.00;;;;;24.35;43.27;101029.88;5049960;28;45359;-56
2022/08/22 08:13:02;;;;;;;;;7.25;5.00;;;;;24.36;43.20;101029.78;5043224;28;45337;-55
2022/08/22 08:15:30;;;;;;;;;6.50;5.75;;;;;24.38;42.76;101027.00;5055855;28;46247;-55
2022/08/22 08:18:04;;;;;;;;;6.50;4.00;;;;;24.41;42.76;101036.56;5057382;28;45106;-55
2022/08/22 08:20:33;;;;;;;;;6.00;6.00;;;;;24.41;43.06;101034.75;5059836;28;44815;-54
2022/08/22 08:23:00;;;;;;;;;7.50;7.00;;;;;24.45;42.78;101040.69;5058202;28;45245;-58
2022/08/22 08:25:29;;;;;;;;;8.50;7.00;;;;;24.47;42.85;101041.44;5043060;28;45485;-56
2022/08/22 08:30:51;;;;;;;;;4.00;4.00;;;;;24.50;42.96;101044.72;5038750;28;45336;-54
2022/08/22 08:33:20;;;;;;;;;4.50;4.50;;;;;24.50;43.15;101043.88;5033729;28;44780;-55
2022/08/22 08:35:52;;;;;;;;;6.50;4.75;;;;;24.51;42.75;101041.09;5019873;28;46175;-55
2022/08/22 08:38:25;;;;;;;;;7.50;6.75;;;;;24.51;42.82;101035.81;5037553;28;45386;-55
2022/08/22 08:41:32;;;;;;;;;6.00;5.25;;;;;24.53;43.14;101030.38;5033310;28;45324;-54
2022/08/22 08:44:22;;;;;;;;;8.00;2.75;;;;;24.54;42.95;101025.00;5034742;28;44902;-55
2022/08/22 08:46:48;;;;;;;;;5.00;5.00;;;;;24.58;42.76;101028.28;5040306;28;45648;-54
2022/08/22 08:49:27;;;;;;;;;7.00;4.50;;;;;24.59;42.70;101024.69;5036618;28;45327;-55
2022/08/22 08:52:01;;;;;;;;;5.75;5.75;;;;;24.61;43.17;101024.56;5036675;28;45836;-56
2022/08/22 08:54:44;;;;;;;;;4.75;4.00;;;;;24.63;43.10;101020.88;5036080;28;44988;-56
2022/08/22 08:57:28;;;;;;;;;3.00;3.00;;;;;24.65;43.27;101016.28;5031669;28;46187;-55
2022/08/22 09:00:12;;;;;;;;;5.00;4.00;;;;;24.68;42.42;101012.59;5033994;28;45558;-55
2022/08/22 09:03:04;;;;;;;;;3.75;3.75;;;;;24.69;43.15;100995.78;5052218;28;45309;-54
2022/08/22 09:06:05;;;;;;;;;5.00;4.75;;;;;24.74;42.60;101001.56;5056712;28;45256;-56
2022/08/22 09:08:50;;;;;;;;;3.75;3.50;;;;;24.77;42.56;101001.38;5053803;28;45712;-55
2022/08/22 09:11:22;;;;;;;;;4.50;3.50;;;;;24.79;42.75;100998.59;5053106;28;45180;-56
2022/08/22 09:14:17;;;;;;;;;8.25;4.00;;;;;24.81;42.36;100994.03;5049160;28;45260;-57
2022/08/22 09:17:07;;;;;;;;;3.00;3.00;;;;;24.84;42.25;100993.84;5046907;28;45130;-55
2022/08/22 09:20:02;;;;;;;;;6.75;5.25;;;;;24.86;42.67;100991.88;5044495;28;47799;-57
2022/08/22 09:22:45;;;;;;;;;4.75;4.00;;;;;24.88;42.65;100991.81;5037629;28;45461;-58
2022/08/22 09:25:32;;;;;;;;;5.00;4.00;;;;;24.91;42.22;100995.06;5017781;28;45316;-58
2022/08/22 09:28:23;;;;;;;;;4.00;4.00;;;;;24.93;42.20;100992.31;5027636;28;45407;-59
2022/08/22 09:31:15;;;;;;;;;5.00;4.00;;;;;24.96;42.35;100986.78;5011355;28;45515;-58
2022/08/22 09:33:59;;;;;;;;;5.25;4.25;;;;;24.98;42.18;100984.88;5016238;28;45711;-58
2022/08/22 09:36:35;;;;;;;;;6.50;4.00;;;;;25.01;42.20;100982.00;5028122;28;45618;-58
2022/08/22 09:39:14;;;;;;;;;4.50;4.25;;;;;25.03;42.56;100976.59;5016585;28;45303;-57
2022/08/22 09:41:39;;;;;;;;;4.75;4.75;;;;;25.07;42.08;100988.69;5027781;28;47139;-58
2022/08/22 09:44:10;;;;;;;;;4.00;4.00;;;;;25.07;42.11;100981.56;5054657;28;44783;-56
2022/08/22 09:47:11;;;;;;;;;7.00;4.50;;;;;25.10;42.06;100984.00;5056816;28;45220;-55
2022/08/22 09:49:36;;;;;;;;;3.00;3.00;;;;;25.12;42.45;100975.91;5055293;28;44771;-55
2022/08/22 09:52:11;;;;;;;;;2.75;2.75;;;;;25.13;41.77;100972.31;5061091;28;46144;-56
2022/08/22 09:55:02;;;;;;;;;5.00;4.00;;;;;25.14;42.33;100966.03;5045862;28;44997;-59
2022/08/22 09:58:01;;;;;;;;;4.25;3.25;;;;;25.17;42.24;100966.66;5043122;28;44714;-55
2022/08/22 10:00:53;;;;;;;;;4.00;3.50;;;;;25.21;42.23;100975.25;5042847;28;44975;-56
2022/08/22 10:04:06;;;;;;;;;3.75;3.75;;;;;25.24;42.27;100971.53;5054388;28;46239;-56
2022/08/22 10:06:45;;;;;;;;;4.00;4.00;;;;;25.26;42.23;100974.91;5063800;28;44998;-60
2022/08/22 10:09:28;;;;;;;;;5.25;4.25;;;;;25.28;41.68;100980.94;5054531;28;44719;-54
2022/08/22 10:12:08;;;;;;;;;5.50;3.75;;;;;25.29;41.59;100982.63;5046368;28;44819;-57
2022/08/22 10:15:03;;;;;;;;;3.00;2.75;;;;;25.28;41.38;100987.09;5043121;28;45394;-59
2022/08/22 10:17:37;;;;;;;;;4.00;2.75;;;;;25.28;41.50;100976.50;5027972;28;45719;-58
2022/08/22 10:20:28;;;;;;;;;2.25;2.25;;;;;25.30;41.45;100979.84;5023411;28;45373;-58
2022/08/22 10:22:59;;;;;;;;;3.75;3.75;;;;;25.30;41.46;100974.56;5028320;28;45315;-60
2022/08/22 10:25:37;;;;;;;;;5.00;3.00;;;;;25.30;41.55;100974.56;5018640;28;45576;-55
2022/08/22 10:28:24;;;;;;;;;6.50;3.50;;;;;25.32;41.46;100974.47;5028869;28;45207;-58
2022/08/22 10:31:20;;;;;;;;;4.75;3.50;;;;;25.34;41.76;100974.34;5034188;28;45309;-58
2022/08/22 10:33:48;;;;;;;;;3.25;3.25;;;;;25.34;41.52;100969.03;5019764;28;45324;-58
2022/08/22 10:36:25;;;;;;;;;4.50;3.00;;;;;25.31;42.15;100970.94;5022547;28;45387;-58
2022/08/22 10:38:54;;;;;;;;;2.75;2.75;;;;;25.33;41.57;100973.50;5023612;28;45241;-60
2022/08/22 10:41:31;;;;;;;;;3.25;3.25;;;;;25.35;41.53;100970.72;5022417;28;45582;-56
2022/08/22 10:43:59;;;;;;;;;3.00;3.00;;;;;25.36;41.94;100967.13;5018611;28;45435;-57
2022/08/22 10:46:37;;;;;;;;;4.00;2.00;;;;;25.37;42.07;100974.94;5018052;28;45481;-59
2022/08/22 10:49:09;;;;;;;;;2.25;2.25;;;;;25.38;41.87;100967.84;5017079;28;45298;-59
2022/08/22 10:51:50;;;;;;;;;2.00;2.00;;;;;25.39;42.12;100969.56;5018279;28;45312;-59
2022/08/22 10:54:42;;;;;;;;;4.75;3.00;;;;;25.40;41.42;100968.59;5018292;28;45345;-59
2022/08/22 10:57:29;;;;;;;;;3.00;2.75;;;;;25.42;41.83;100966.69;5014004;28;46213;-58
2022/08/22 11:00:29;;;;;;;;;3.25;3.25;;;;;25.42;41.62;100962.22;5018118;28;45646;-58
2022/08/22 11:03:33;;;;;;;;;2.00;2.00;;;;;25.43;41.91;100974.53;5016669;28;45324;-59
2022/08/22 11:06:02;;;;;;;;;2.25;2.25;;;;;25.44;41.48;100960.31;5041186;28;44761;-58
2022/08/22 11:08:44;;;;;;;;;4.75;3.00;;;;;25.46;41.82;100963.72;5022607;28;46184;-57
2022/08/22 11:11:24;;;;;;;;;2.00;2.00;;;;;25.47;42.07;100960.06;5017613;28;45451;-57
2022/08/22 11:14:05;;;;;;;;;2.25;2.25;;;;;25.49;41.62;100965.28;5018101;28;45307;-56
2022/08/22 11:16:56;;;;;;;;;3.00;1.50;;;;;25.49;42.05;100973.25;5017836;28;45425;-56
2022/08/22 11:19:32;;;;;;;;;2.00;2.00;;;;;25.49;41.46;100967.06;5017136;28;45328;-55
2022/08/22 11:22:30;;;;;;;;;2.00;2.00;;;;;25.50;41.90;100969.63;5017625;28;45715;-54
2022/08/22 11:25:34;;;;;;;;;3.50;2.50;;;;;25.50;41.80;100959.03;5033625;28;44747;-58
2022/08/22 11:28:24;;;;;;;;;1.75;1.75;;;;;25.51;41.49;100959.84;5025846;28;45352;-59
2022/08/22 11:31:11;;;;;;;;;2.75;2.50;;;;;25.50;42.00;100959.03;5020175;28;46374;-58
2022/08/22 11:34:26;;;;;;;;;4.50;3.00;;;;;25.50;41.55;100958.16;5016087;28;45936;-58
2022/08/22 11:36:58;;;;;;;;;1.50;1.00;;;;;25.49;41.99;100951.16;5011122;28;45535;-58
2022/08/22 11:39:47;;;;;;;;;3.50;2.00;;;;;25.50;42.43;100958.16;5017328;28;45217;-56
2022/08/22 11:42:32;;;;;;;;;3.50;2.00;;;;;25.49;41.99;100952.00;5017116;28;46562;-59
2022/08/22 11:45:05;;;;;;;;;2.00;2.00;;;;;25.51;41.87;100943.94;5017235;28;45522;-58
2022/08/22 11:47:38;;;;;;;;;2.50;2.00;;;;;25.52;42.39;100948.28;5016741;28;45430;-59
2022/08/22 11:50:17;;;;;;;;;2.25;2.25;;;;;25.54;42.15;100949.84;5018006;28;45212;-59
2022/08/22 11:52:56;;;;;;;;;4.00;1.50;;;;;25.57;41.96;100943.47;5016711;28;46935;-59
2022/08/22 11:55:59;;;;;;;;;2.00;2.00;;;;;25.58;41.80;100943.34;5016523;28;45233;-59
2022/08/22 11:58:33;;;;;;;;;2.75;2.00;;;;;25.60;42.35;100944.09;5032290;28;45257;-57
2022/08/22 12:01:10;;;;;;;;;2.75;2.00;;;;;25.60;41.94;100952.06;5034013;28;44814;-59
2022/08/22 12:03:56;;;;;;;;;3.00;3.00;;;;;25.61;42.42;100947.56;5017375;28;46293;-54
2022/08/22 12:06:50;;;;;;;;;2.75;2.00;;;;;25.57;42.01;100941.66;5016916;28;45255;-59
2022/08/22 12:09:28;;;;;;;;;2.00;2.00;;;;;25.60;41.95;100954.72;5017525;28;45290;-57
2022/08/22 12:11:59;;;;;;;;;4.25;2.25;;;;;25.60;41.99;100944.09;5025901;28;45448;-58
2022/08/22 12:14:49;;;;;;;;;2.00;2.00;;;;;25.59;42.45;100945.06;5024653;28;45654;-58
2022/08/22 12:17:44;;;;;;;;;3.00;3.00;;;;;25.59;42.16;100942.41;5022922;28;45376;-58
2022/08/22 12:20:13;;;;;;;;;3.00;3.00;;;;;25.59;42.69;100939.75;5023996;28;45580;-57
2022/08/22 12:23:04;;;;;;;;;3.00;2.00;;;;;25.59;42.48;100936.22;5030117;28;45599;-58
2022/08/22 12:26:11;;;;;;;;;3.25;3.25;;;;;25.57;42.62;100924.91;5028986;28;46677;-56
2022/08/22 12:29:04;;;;;;;;;4.25;2.75;;;;;25.58;42.28;100935.41;5016927;28;45424;-56
2022/08/22 12:32:07;;;;;;;;;3.50;3.00;;;;;25.59;42.16;100937.09;5017071;28;45371;-56